sensor_id;sensor_type;location;lat;lon;timestamp;pressure;altitude;pressure_sealevel;temperature;humidity
37142;BME280;23041;49.816;20.092;2022-11-03T00:01:43;98423.13;;;10.55;59.39
37142;BME280;23041;49.816;20.092;2022-11-03T00:04:06;98420.14;;;10.43;59.59
37142;BME280;23041;49.816;20.092;2022-11-03T00:06:34;98434.57;;;10.50;59.77
37142;BME280;23041;49.816;20.092;2022-11-03T00:09:04;98426.20;;;10.46;59.90
37142;BME280;23041;49.816;20.092;2022-11-03T00:11:33;98428.38;;;10.43;60.04
37142;BME280;23041;49.816;20.092;2022-11-03T00:14:00;98426.92;;;10.35;60.17
37142;BME280;23041;49.816;20.092;2022-11-03T00:16:27;98428.74;;;10.30;60.29
37142;BME280;23041;49.816;20.092;2022-11-03T00:18:54;98429.92;;;10.29;60.41
37142;BME280;23041;49.816;20.092;2022-11-03T00:21:20;98427.20;;;10.25;60.52
37142;BME280;23041;49.816;20.092;2022-11-03T00:23:48;98430.20;;;10.19;60.60
37142;BME280;23041;49.816;20.092;2022-11-03T00:28:48;98441.05;;;10.11;60.78
37142;BME280;23041;49.816;20.092;2022-11-03T00:33:47;98435.69;;;10.00;61.02
37142;BME280;23041;49.816;20.092;2022-11-03T00:36:16;98432.17;;;9.96;61.19
37142;BME280;23041;49.816;20.092;2022-11-03T00:38:44;98436.23;;;10.03;61.31
37142;BME280;23041;49.816;20.092;2022-11-03T00:41:11;98436.80;;;10.06;61.41
37142;BME280;23041;49.816;20.092;2022-11-03T00:43:38;98445.14;;;10.18;61.51
37142;BME280;23041;49.816;20.092;2022-11-03T00:46:05;98448.16;;;10.27;61.56
37142;BME280;23041;49.816;20.092;2022-11-03T00:48:34;98448.16;;;10.27;61.58
37142;BME280;23041;49.816;20.092;2022-11-03T00:53:50;98441.16;;;10.22;61.59
37142;BME280;23041;49.816;20.092;2022-11-03T00:56:24;98441.42;;;10.16;61.61
37142;BME280;23041;49.816;20.092;2022-11-03T00:58:49;98442.03;;;10.12;61.61
37142;BME280;23041;49.816;20.092;2022-11-03T01:01:21;98434.06;;;10.06;61.64
37142;BME280;23041;49.816;20.092;2022-11-03T01:03:51;98433.99;;;9.91;61.66
37142;BME280;23041;49.816;20.092;2022-11-03T01:06:39;98439.39;;;9.79;61.70
37142;BME280;23041;49.816;20.092;2022-11-03T01:09:20;98438.31;;;9.70;61.74
37142;BME280;23041;49.816;20.092;2022-11-03T01:14:37;98438.86;;;9.21;61.78
37142;BME280;23041;49.816;20.092;2022-11-03T01:17:19;98433.17;;;8.91;61.91
37142;BME280;23041;49.816;20.092;2022-11-03T01:19:49;98433.20;;;8.84;62.05
37142;BME280;23041;49.816;20.092;2022-11-03T01:22:17;98444.19;;;8.80;62.17
37142;BME280;23041;49.816;20.092;2022-11-03T01:24:44;98443.38;;;8.83;62.25
37142;BME280;23041;49.816;20.092;2022-11-03T01:27:14;98450.83;;;8.79;62.32
37142;BME280;23041;49.816;20.092;2022-11-03T01:29:41;98447.73;;;8.70;62.38
37142;BME280;23041;49.816;20.092;2022-11-03T01:32:08;98445.83;;;8.64;62.44
37142;BME280;23041;49.816;20.092;2022-11-03T01:34:35;98442.53;;;8.57;62.49
37142;BME280;23041;49.816;20.092;2022-11-03T01:37:02;98449.39;;;8.46;62.54
37142;BME280;23041;49.816;20.092;2022-11-03T01:39:28;98450.97;;;8.40;62.59
37142;BME280;23041;49.816;20.092;2022-11-03T01:41:55;98448.83;;;8.29;62.65
37142;BME280;23041;49.816;20.092;2022-11-03T01:44:36;98448.09;;;8.22;62.73
37142;BME280;23041;49.816;20.092;2022-11-03T01:52:41;98438.58;;;7.75;62.91
37142;BME280;23041;49.816;20.092;2022-11-03T01:55:18;98439.95;;;7.65;63.03
37142;BME280;23041;49.816;20.092;2022-11-03T01:57:53;98452.63;;;7.70;63.15
37142;BME280;23041;49.816;20.092;2022-11-03T02:00:18;98448.34;;;7.59;63.26
37142;BME280;23041;49.816;20.092;2022-11-03T02:02:45;98444.26;;;7.45;63.31
37142;BME280;23041;49.816;20.092;2022-11-03T02:05:13;98441.33;;;7.44;63.43
37142;BME280;23041;49.816;20.092;2022-11-03T02:10:31;98442.08;;;7.33;63.68
37142;BME280;23041;49.816;20.092;2022-11-03T02:12:58;98439.37;;;7.37;63.79
37142;BME280;23041;49.816;20.092;2022-11-03T02:15:26;98436.05;;;7.41;63.92
37142;BME280;23041;49.816;20.092;2022-11-03T02:17:54;98433.89;;;7.41;64.01
37142;BME280;23041;49.816;20.092;2022-11-03T02:20:23;98425.31;;;7.24;64.14
37142;BME280;23041;49.816;20.092;2022-11-03T02:25:46;98432.74;;;7.38;64.40
37142;BME280;23041;49.816;20.092;2022-11-03T02:28:23;98444.84;;;7.62;64.53
37142;BME280;23041;49.816;20.092;2022-11-03T02:31:13;98445.03;;;7.73;64.60
37142;BME280;23041;49.816;20.092;2022-11-03T02:34:03;98437.42;;;7.80;64.67
37142;BME280;23041;49.816;20.092;2022-11-03T02:36:44;98443.64;;;7.88;64.75
37142;BME280;23041;49.816;20.092;2022-11-03T02:39:30;98444.23;;;7.91;64.77
37142;BME280;23041;49.816;20.092;2022-11-03T02:41:56;98444.23;;;7.91;64.79
37142;BME280;23041;49.816;20.092;2022-11-03T02:44:24;98445.41;;;7.90;64.82
37142;BME280;23041;49.816;20.092;2022-11-03T02:46:54;98443.05;;;7.88;64.86
37142;BME280;23041;49.816;20.092;2022-11-03T02:49:22;98455.37;;;7.85;64.89
37142;BME280;23041;49.816;20.092;2022-11-03T02:52:00;98442.47;;;7.82;64.93
37142;BME280;23041;49.816;20.092;2022-11-03T02:54:36;98446.60;;;7.74;64.95
37142;BME280;23041;49.816;20.092;2022-11-03T02:57:15;98443.08;;;7.53;65.00
37142;BME280;23041;49.816;20.092;2022-11-03T03:00:04;98450.69;;;7.43;65.03
37142;BME280;23041;49.816;20.092;2022-11-03T03:02:38;98446.01;;;7.43;65.08
37142;BME280;23041;49.816;20.092;2022-11-03T03:05:07;98448.33;;;7.52;65.13
37142;BME280;23041;49.816;20.092;2022-11-03T03:07:37;98451.08;;;7.48;65.26
37142;BME280;23041;49.816;20.092;2022-11-03T03:10:13;98451.08;;;7.48;65.26
37142;BME280;23041;49.816;20.092;2022-11-03T03:12:48;98454.00;;;7.42;65.14
37142;BME280;23041;49.816;20.092;2022-11-03T03:15:17;98453.41;;;7.35;65.15
37142;BME280;23041;49.816;20.092;2022-11-03T03:18:01;98450.84;;;7.22;65.17
37142;BME280;23041;49.816;20.092;2022-11-03T03:20:38;98446.16;;;7.12;65.22
37142;BME280;23041;49.816;20.092;2022-11-03T03:23:25;98450.84;;;7.08;65.25
37142;BME280;23041;49.816;20.092;2022-11-03T03:25:55;98452.18;;;7.05;65.30
37142;BME280;23041;49.816;20.092;2022-11-03T03:28:41;98455.67;;;6.98;65.36
37142;BME280;23041;49.816;20.092;2022-11-03T03:31:15;98455.27;;;6.92;65.43
37142;BME280;23041;49.816;20.092;2022-11-03T03:33:44;98444.88;;;6.71;65.51
37142;BME280;23041;49.816;20.092;2022-11-03T03:36:14;98447.03;;;6.71;65.63
37142;BME280;23041;49.816;20.092;2022-11-03T03:38:54;98448.39;;;6.71;65.75
37142;BME280;23041;49.816;20.092;2022-11-03T03:41:23;98447.41;;;6.70;65.84
37142;BME280;23041;49.816;20.092;2022-11-03T03:43:54;98447.84;;;6.82;65.93
37142;BME280;23041;49.816;20.092;2022-11-03T03:46:26;98446.88;;;6.84;65.98
37142;BME280;23041;49.816;20.092;2022-11-03T03:48:53;98449.00;;;6.81;66.03
37142;BME280;23041;49.816;20.092;2022-11-03T03:51:22;98450.95;;;6.77;66.08
37142;BME280;23041;49.816;20.092;2022-11-03T03:53:51;98450.91;;;6.67;66.10
37142;BME280;23041;49.816;20.092;2022-11-03T03:56:30;98455.55;;;6.63;66.12
37142;BME280;23041;49.816;20.092;2022-11-03T03:58:58;98451.22;;;6.51;66.16
37142;BME280;23041;49.816;20.092;2022-11-03T04:01:24;98452.17;;;6.42;66.20
37142;BME280;23041;49.816;20.092;2022-11-03T04:03:50;98455.84;;;6.36;66.19
37142;BME280;23041;49.816;20.092;2022-11-03T04:06:17;98449.36;;;6.28;66.21
37142;BME280;23041;49.816;20.092;2022-11-03T04:08:43;98441.86;;;6.07;66.25
37142;BME280;23041;49.816;20.092;2022-11-03T04:11:09;98442.61;;;6.04;66.31
37142;BME280;23041;49.816;20.092;2022-11-03T04:13:53;98445.70;;;6.02;66.38
37142;BME280;23041;49.816;20.092;2022-11-03T04:16:38;98441.04;;;6.03;66.44
37142;BME280;23041;49.816;20.092;2022-11-03T04:19:22;98446.17;;;6.15;66.51
37142;BME280;23041;49.816;20.092;2022-11-03T04:22:07;98442.28;;;6.12;66.51
37142;BME280;23041;49.816;20.092;2022-11-03T04:24:48;98445.95;;;6.10;66.55
37142;BME280;23041;49.816;20.092;2022-11-03T04:27:35;98440.66;;;6.01;66.57
37142;BME280;23041;49.816;20.092;2022-11-03T04:32:44;98438.62;;;5.87;66.66
37142;BME280;23041;49.816;20.092;2022-11-03T04:35:21;98436.22;;;5.82;66.71
37142;BME280;23041;49.816;20.092;2022-11-03T04:37:53;98435.02;;;5.80;66.78
37142;BME280;23041;49.816;20.092;2022-11-03T04:40:24;98431.66;;;5.69;66.80
37142;BME280;23041;49.816;20.092;2022-11-03T04:42:50;98426.15;;;5.62;66.84
37142;BME280;23041;49.816;20.092;2022-11-03T04:45:28;98421.70;;;5.40;66.89
37142;BME280;23041;49.816;20.092;2022-11-03T04:47:57;98425.95;;;5.38;66.96
37142;BME280;23041;49.816;20.092;2022-11-03T04:50:25;98424.22;;;5.39;67.00
37142;BME280;23041;49.816;20.092;2022-11-03T04:52:56;98423.48;;;5.42;67.06
37142;BME280;23041;49.816;20.092;2022-11-03T04:55:24;98435.77;;;5.49;67.12
37142;BME280;23041;49.816;20.092;2022-11-03T04:57:59;98440.28;;;5.55;67.16
37142;BME280;23041;49.816;20.092;2022-11-03T05:00:27;98442.84;;;5.57;67.19
37142;BME280;23041;49.816;20.092;2022-11-03T05:02:53;98439.96;;;5.60;67.23
37142;BME280;23041;49.816;20.092;2022-11-03T05:05:22;98434.09;;;5.58;67.25
37142;BME280;23041;49.816;20.092;2022-11-03T05:07:54;98438.13;;;5.51;67.26
37142;BME280;23041;49.816;20.092;2022-11-03T05:10:26;98436.68;;;5.40;67.25
37142;BME280;23041;49.816;20.092;2022-11-03T05:12:54;98437.81;;;5.36;67.23
37142;BME280;23041;49.816;20.092;2022-11-03T05:15:35;98445.13;;;5.28;67.30
37142;BME280;23041;49.816;20.092;2022-11-03T05:18:27;98443.91;;;5.22;67.30
37142;BME280;23041;49.816;20.092;2022-11-03T05:20:50;98439.15;;;5.12;67.32
37142;BME280;23041;49.816;20.092;2022-11-03T05:23:18;98444.17;;;5.10;67.33
37142;BME280;23041;49.816;20.092;2022-11-03T05:25:47;98438.56;;;4.92;67.41
37142;BME280;23041;49.816;20.092;2022-11-03T05:28:31;98439.70;;;4.91;67.47
37142;BME280;23041;49.816;20.092;2022-11-03T05:31:01;98439.69;;;4.87;67.55
37142;BME280;23041;49.816;20.092;2022-11-03T05:33:34;98445.02;;;4.97;67.62
37142;BME280;23041;49.816;20.092;2022-11-03T05:36:13;98438.00;;;4.96;67.68
37142;BME280;23041;49.816;20.092;2022-11-03T05:38:41;98440.86;;;4.90;67.70
37142;BME280;23041;49.816;20.092;2022-11-03T05:41:18;98444.57;;;4.91;67.74
37142;BME280;23041;49.816;20.092;2022-11-03T05:43:53;98441.93;;;4.99;67.79
37142;BME280;23041;49.816;20.092;2022-11-03T05:46:30;98446.80;;;4.99;67.85
37142;BME280;23041;49.816;20.092;2022-11-03T05:48:59;98442.72;;;4.99;67.93
37142;BME280;23041;49.816;20.092;2022-11-03T05:51:35;98438.45;;;5.02;68.00
37142;BME280;23041;49.816;20.092;2022-11-03T05:54:06;98442.97;;;5.07;68.04
37142;BME280;23041;49.816;20.092;2022-11-03T05:56:35;98443.23;;;5.12;68.09
37142;BME280;23041;49.816;20.092;2022-11-03T05:59:02;98435.28;;;4.96;68.13
37142;BME280;23041;49.816;20.092;2022-11-03T06:01:37;98434.81;;;5.07;68.19
37142;BME280;23041;49.816;20.092;2022-11-03T06:04:28;98438.09;;;5.23;68.25
37142;BME280;23041;49.816;20.092;2022-11-03T06:07:15;98442.84;;;5.85;68.32
37142;BME280;23041;49.816;20.092;2022-11-03T06:09:42;98438.47;;;6.80;68.51
37142;BME280;23041;49.816;20.092;2022-11-03T06:12:10;98445.21;;;7.57;68.63
37142;BME280;23041;49.816;20.092;2022-11-03T06:14:39;98442.08;;;7.97;68.61
37142;BME280;23041;49.816;20.092;2022-11-03T06:17:12;98445.92;;;8.17;68.44
37142;BME280;23041;49.816;20.092;2022-11-03T06:19:48;98446.89;;;8.26;68.19
37142;BME280;23041;49.816;20.092;2022-11-03T06:22:21;98447.45;;;8.29;67.91
37142;BME280;23041;49.816;20.092;2022-11-03T06:24:50;98442.59;;;8.39;67.66
37142;BME280;23041;49.816;20.092;2022-11-03T06:27:20;98441.11;;;8.68;67.42
37142;BME280;23041;49.816;20.092;2022-11-03T06:29:51;98431.74;;;9.31;67.24
37142;BME280;23041;49.816;20.092;2022-11-03T06:32:24;98430.87;;;9.67;67.04
37142;BME280;23041;49.816;20.092;2022-11-03T06:34:55;98432.94;;;10.87;66.78
37142;BME280;23041;49.816;20.092;2022-11-03T06:37:30;98435.65;;;11.82;66.56
37142;BME280;23041;49.816;20.092;2022-11-03T06:39:59;98435.81;;;12.78;66.11
37142;BME280;23041;49.816;20.092;2022-11-03T06:42:30;98435.99;;;13.34;65.57
37142;BME280;23041;49.816;20.092;2022-11-03T06:44:58;98432.03;;;13.68;64.99
37142;BME280;23041;49.816;20.092;2022-11-03T06:47:27;98436.67;;;13.71;64.18
37142;BME280;23041;49.816;20.092;2022-11-03T06:49:56;98435.88;;;14.03;63.37
37142;BME280;23041;49.816;20.092;2022-11-03T06:52:32;98433.38;;;14.53;62.62
37142;BME280;23041;49.816;20.092;2022-11-03T06:57:38;98446.89;;;15.18;60.95
37142;BME280;23041;49.816;20.092;2022-11-03T07:00:20;98444.13;;;15.18;60.01
37142;BME280;23041;49.816;20.092;2022-11-03T07:05:35;98435.84;;;15.56;58.56
37142;BME280;23041;49.816;20.092;2022-11-03T07:08:24;98439.88;;;16.58;58.22
37142;BME280;23041;49.816;20.092;2022-11-03T07:11:03;98441.62;;;17.79;57.78
37142;BME280;23041;49.816;20.092;2022-11-03T07:13:28;98439.20;;;19.84;56.95
37142;BME280;23041;49.816;20.092;2022-11-03T07:15:56;98436.97;;;21.62;55.88
37142;BME280;23041;49.816;20.092;2022-11-03T07:18:26;98432.74;;;23.04;54.43
37142;BME280;23041;49.816;20.092;2022-11-03T07:20:55;98428.94;;;24.12;52.70
37142;BME280;23041;49.816;20.092;2022-11-03T07:23:25;98432.70;;;25.45;50.93
37142;BME280;23041;49.816;20.092;2022-11-03T07:25:59;98431.17;;;26.52;49.10
37142;BME280;23041;49.816;20.092;2022-11-03T07:28:32;98429.20;;;27.06;47.10
37142;BME280;23041;49.816;20.092;2022-11-03T07:31:15;98431.23;;;27.29;45.32
37142;BME280;23041;49.816;20.092;2022-11-03T07:33:41;98422.78;;;28.07;43.80
37142;BME280;23041;49.816;20.092;2022-11-03T07:36:09;98415.20;;;28.52;42.23
37142;BME280;23041;49.816;20.092;2022-11-03T07:38:43;98420.23;;;28.40;40.86
37142;BME280;23041;49.816;20.092;2022-11-03T07:41:18;98412.27;;;27.83;39.50
37142;BME280;23041;49.816;20.092;2022-11-03T07:43:52;98412.06;;;28.18;38.62
37142;BME280;23041;49.816;20.092;2022-11-03T07:46:19;98404.28;;;29.82;37.76
37142;BME280;23041;49.816;20.092;2022-11-03T07:48:55;98407.27;;;30.76;36.62
37142;BME280;23041;49.816;20.092;2022-11-03T07:51:35;98405.79;;;31.44;35.57
37142;BME280;23041;49.816;20.092;2022-11-03T07:54:28;98402.79;;;31.71;34.25
37142;BME280;23041;49.816;20.092;2022-11-03T07:56:59;98393.63;;;32.14;33.23
37142;BME280;23041;49.816;20.092;2022-11-03T07:59:38;98384.17;;;33.21;32.31
37142;BME280;23041;49.816;20.092;2022-11-03T08:02:33;98382.91;;;33.91;31.17
37142;BME280;23041;49.816;20.092;2022-11-03T08:05:03;98382.52;;;34.58;29.97
37142;BME280;23041;49.816;20.092;2022-11-03T08:07:29;98380.50;;;35.15;28.85
37142;BME280;23041;49.816;20.092;2022-11-03T08:09:56;98378.02;;;35.53;28.07
37142;BME280;23041;49.816;20.092;2022-11-03T08:12:22;98378.05;;;35.61;27.36
37142;BME280;23041;49.816;20.092;2022-11-03T08:14:49;98373.60;;;36.27;26.72
37142;BME280;23041;49.816;20.092;2022-11-03T08:17:15;98369.02;;;37.31;26.08
37142;BME280;23041;49.816;20.092;2022-11-03T08:19:41;98361.70;;;38.12;25.31
37142;BME280;23041;49.816;20.092;2022-11-03T08:22:08;98354.31;;;38.77;24.51
37142;BME280;23041;49.816;20.092;2022-11-03T08:24:34;98353.39;;;39.45;23.80
37142;BME280;23041;49.816;20.092;2022-11-03T08:27:01;98345.22;;;39.73;23.04
37142;BME280;23041;49.816;20.092;2022-11-03T08:29:28;98350.16;;;40.03;22.35
37142;BME280;23041;49.816;20.092;2022-11-03T08:31:54;98344.19;;;40.32;21.75
37142;BME280;23041;49.816;20.092;2022-11-03T08:34:21;98339.13;;;40.76;21.21
37142;BME280;23041;49.816;20.092;2022-11-03T08:36:47;98328.38;;;41.22;20.60
37142;BME280;23041;49.816;20.092;2022-11-03T08:39:13;98335.48;;;41.44;20.08
37142;BME280;23041;49.816;20.092;2022-11-03T08:41:40;98329.73;;;41.56;19.49
37142;BME280;23041;49.816;20.092;2022-11-03T08:44:06;98320.91;;;42.02;19.07
37142;BME280;23041;49.816;20.092;2022-11-03T08:46:33;98319.95;;;42.10;18.58
37142;BME280;23041;49.816;20.092;2022-11-03T08:48:59;98309.39;;;42.14;18.07
37142;BME280;23041;49.816;20.092;2022-11-03T08:51:26;98309.51;;;42.04;17.70
37142;BME280;23041;49.816;20.092;2022-11-03T08:53:52;98313.16;;;42.29;17.42
37142;BME280;23041;49.816;20.092;2022-11-03T08:56:20;98308.59;;;42.76;17.14
37142;BME280;23041;49.816;20.092;2022-11-03T08:58:46;98304.72;;;42.98;16.80
37142;BME280;23041;49.816;20.092;2022-11-03T09:01:13;98299.81;;;42.74;16.36
37142;BME280;23041;49.816;20.092;2022-11-03T09:03:40;98300.30;;;42.96;16.01
37142;BME280;23041;49.816;20.092;2022-11-03T09:06:07;98298.45;;;42.37;15.30
37142;BME280;23041;49.816;20.092;2022-11-03T09:08:33;98297.75;;;42.00;15.04
37142;BME280;23041;49.816;20.092;2022-11-03T09:11:00;98285.91;;;42.07;14.83
37142;BME280;23041;49.816;20.092;2022-11-03T09:13:26;98299.20;;;42.25;14.58
37142;BME280;23041;49.816;20.092;2022-11-03T09:15:53;98293.55;;;41.66;14.36
37142;BME280;23041;49.816;20.092;2022-11-03T09:18:19;98292.45;;;41.23;14.24
37142;BME280;23041;49.816;20.092;2022-11-03T09:20:47;98294.23;;;40.60;14.17
37142;BME280;23041;49.816;20.092;2022-11-03T09:23:13;98278.77;;;40.10;14.26
37142;BME280;23041;49.816;20.092;2022-11-03T09:25:39;98270.98;;;41.74;14.57
37142;BME280;23041;49.816;20.092;2022-11-03T09:28:06;98266.61;;;43.41;14.32
37142;BME280;23041;49.816;20.092;2022-11-03T09:30:32;98271.11;;;43.58;13.58
37142;BME280;23041;49.816;20.092;2022-11-03T09:32:58;98273.75;;;42.72;13.41
37142;BME280;23041;49.816;20.092;2022-11-03T09:35:25;98267.22;;;42.59;13.36
37142;BME280;23041;49.816;20.092;2022-11-03T09:37:52;98262.83;;;42.58;13.30
37142;BME280;23041;49.816;20.092;2022-11-03T09:40:18;98265.00;;;41.70;12.99
37142;BME280;23041;49.816;20.092;2022-11-03T09:42:46;98260.34;;;40.14;12.98
37142;BME280;23041;49.816;20.092;2022-11-03T09:45:13;98262.89;;;39.98;13.22
37142;BME280;23041;49.816;20.092;2022-11-03T09:47:41;98256.48;;;40.66;13.36
37142;BME280;23041;49.816;20.092;2022-11-03T09:50:15;98254.14;;;41.09;13.17
37142;BME280;23041;49.816;20.092;2022-11-03T09:52:44;98251.81;;;41.54;13.10
37142;BME280;23041;49.816;20.092;2022-11-03T09:55:12;98249.83;;;42.31;12.91
37142;BME280;23041;49.816;20.092;2022-11-03T09:57:42;98244.19;;;43.41;12.74
37142;BME280;23041;49.816;20.092;2022-11-03T10:00:18;98235.89;;;42.80;12.30
37142;BME280;23041;49.816;20.092;2022-11-03T10:02:47;98236.81;;;42.30;12.24
37142;BME280;23041;49.816;20.092;2022-11-03T10:05:18;98236.25;;;42.73;12.27
37142;BME280;23041;49.816;20.092;2022-11-03T10:07:51;98238.80;;;43.34;12.16
37142;BME280;23041;49.816;20.092;2022-11-03T10:10:21;98237.70;;;44.27;12.02
37142;BME280;23041;49.816;20.092;2022-11-03T10:12:48;98233.94;;;44.40;11.69
37142;BME280;23041;49.816;20.092;2022-11-03T10:15:18;98222.17;;;44.36;11.57
37142;BME280;23041;49.816;20.092;2022-11-03T10:17:45;98217.60;;;44.93;11.50
37142;BME280;23041;49.816;20.092;2022-11-03T10:20:13;98214.63;;;44.91;11.38
37142;BME280;23041;49.816;20.092;2022-11-03T10:22:42;98214.44;;;45.52;11.37
37142;BME280;23041;49.816;20.092;2022-11-03T10:28:20;98214.99;;;44.52;10.89
37142;BME280;23041;49.816;20.092;2022-11-03T10:31:00;98204.20;;;43.78;11.05
37142;BME280;23041;49.816;20.092;2022-11-03T10:33:29;98203.91;;;44.78;11.08
37142;BME280;23041;49.816;20.092;2022-11-03T10:36:02;98194.41;;;45.59;11.05
37142;BME280;23041;49.816;20.092;2022-11-03T10:38:30;98189.16;;;46.44;10.90
37142;BME280;23041;49.816;20.092;2022-11-03T10:41:20;98190.09;;;46.68;10.63
37142;BME280;23041;49.816;20.092;2022-11-03T10:46:40;98179.86;;;45.75;10.41
37142;BME280;23041;49.816;20.092;2022-11-03T10:49:16;98180.73;;;46.33;10.39
37142;BME280;23041;49.816;20.092;2022-11-03T10:51:49;98176.92;;;46.47;10.37
37142;BME280;23041;49.816;20.092;2022-11-03T10:54:18;98169.41;;;46.58;10.39
37142;BME280;23041;49.816;20.092;2022-11-03T10:56:47;98162.13;;;46.78;10.08
37142;BME280;23041;49.816;20.092;2022-11-03T10:59:21;98163.03;;;46.44;9.88
37142;BME280;23041;49.816;20.092;2022-11-03T11:01:49;98149.80;;;46.79;9.78
37142;BME280;23041;49.816;20.092;2022-11-03T11:04:16;98144.20;;;46.84;9.81
37142;BME280;23041;49.816;20.092;2022-11-03T11:06:44;98141.69;;;47.16;9.73
37142;BME280;23041;49.816;20.092;2022-11-03T11:09:14;98133.90;;;46.60;9.56
37142;BME280;23041;49.816;20.092;2022-11-03T11:12:06;98134.17;;;46.68;9.62
37142;BME280;23041;49.816;20.092;2022-11-03T11:15:00;98125.64;;;46.53;9.57
37142;BME280;23041;49.816;20.092;2022-11-03T11:17:43;98118.16;;;46.67;9.66
37142;BME280;23041;49.816;20.092;2022-11-03T11:20:17;98118.85;;;47.06;9.69
37142;BME280;23041;49.816;20.092;2022-11-03T11:22:47;98112.79;;;46.99;9.63
37142;BME280;23041;49.816;20.092;2022-11-03T11:25:16;98101.33;;;46.44;9.71
37142;BME280;23041;49.816;20.092;2022-11-03T11:27:46;98101.51;;;46.49;9.70
37142;BME280;23041;49.816;20.092;2022-11-03T11:32:59;98084.33;;;45.26;9.50
37142;BME280;23041;49.816;20.092;2022-11-03T11:38:43;98077.64;;;46.12;9.50
37142;BME280;23041;49.816;20.092;2022-11-03T11:40:49;98072.16;;;45.65;9.58
37142;BME280;23041;49.816;20.092;2022-11-03T11:43:24;98066.96;;;45.80;9.71
37142;BME280;23041;49.816;20.092;2022-11-03T11:51:36;98061.41;;;45.49;9.80
37142;BME280;23041;49.816;20.092;2022-11-03T11:54:07;98051.45;;;45.37;9.83
37142;BME280;23041;49.816;20.092;2022-11-03T11:56:45;98052.96;;;45.56;9.79
37142;BME280;23041;49.816;20.092;2022-11-03T11:59:21;98045.67;;;45.19;9.68
37142;BME280;23041;49.816;20.092;2022-11-03T12:01:51;98033.50;;;44.38;9.93
37142;BME280;23041;49.816;20.092;2022-11-03T12:04:26;98028.32;;;44.20;10.08
37142;BME280;23041;49.816;20.092;2022-11-03T12:06:55;98031.27;;;44.21;10.18
37142;BME280;23041;49.816;20.092;2022-11-03T12:09:24;98024.78;;;44.06;10.26
37142;BME280;23041;49.816;20.092;2022-11-03T12:11:59;98025.50;;;43.89;10.27
37142;BME280;23041;49.816;20.092;2022-11-03T12:14:35;98017.11;;;43.81;10.34
37142;BME280;23041;49.816;20.092;2022-11-03T12:19:52;98004.59;;;43.30;10.42
37142;BME280;23041;49.816;20.092;2022-11-03T12:24:59;98001.48;;;42.54;10.68
37142;BME280;23041;49.816;20.092;2022-11-03T12:30:05;97979.99;;;41.88;11.00
37142;BME280;23041;49.816;20.092;2022-11-03T12:32:39;97980.89;;;41.39;11.16
37142;BME280;23041;49.816;20.092;2022-11-03T12:35:06;97970.20;;;41.15;11.35
37142;BME280;23041;49.816;20.092;2022-11-03T12:37:34;97968.73;;;40.90;11.50
37142;BME280;23041;49.816;20.092;2022-11-03T12:40:01;97967.47;;;40.81;11.56
37142;BME280;23041;49.816;20.092;2022-11-03T12:42:27;97966.30;;;40.49;11.59
37142;BME280;23041;49.816;20.092;2022-11-03T12:44:53;97954.06;;;39.21;11.80
37142;BME280;23041;49.816;20.092;2022-11-03T12:47:20;97949.97;;;39.24;12.05
37142;BME280;23041;49.816;20.092;2022-11-03T12:49:47;97951.78;;;38.96;12.24
37142;BME280;23041;49.816;20.092;2022-11-03T12:52:14;97949.64;;;38.86;12.41
37142;BME280;23041;49.816;20.092;2022-11-03T12:54:40;97943.74;;;39.05;12.55
37142;BME280;23041;49.816;20.092;2022-11-03T12:57:07;97941.27;;;39.11;12.56
37142;BME280;23041;49.816;20.092;2022-11-03T12:59:33;97937.18;;;39.04;12.56
37142;BME280;23041;49.816;20.092;2022-11-03T13:02:00;97943.53;;;38.91;12.69
37142;BME280;23041;49.816;20.092;2022-11-03T13:04:31;97948.66;;;38.71;12.70
37142;BME280;23041;49.816;20.092;2022-11-03T13:06:54;97946.59;;;38.09;12.86
37142;BME280;23041;49.816;20.092;2022-11-03T13:09:21;97946.48;;;37.86;13.01
37142;BME280;23041;49.816;20.092;2022-11-03T13:11:47;97936.20;;;37.12;13.10
37142;BME280;23041;49.816;20.092;2022-11-03T13:14:32;97930.88;;;36.40;13.39
37142;BME280;23041;49.816;20.092;2022-11-03T13:16:58;97926.73;;;36.32;13.71
37142;BME280;23041;49.816;20.092;2022-11-03T13:19:25;97925.14;;;36.21;13.88
37142;BME280;23041;49.816;20.092;2022-11-03T13:21:51;97919.95;;;36.00;13.95
37142;BME280;23041;49.816;20.092;2022-11-03T13:24:17;97920.73;;;35.73;14.03
37142;BME280;23041;49.816;20.092;2022-11-03T13:26:43;97915.83;;;35.19;14.16
37142;BME280;23041;49.816;20.092;2022-11-03T13:29:10;97906.83;;;34.88;14.38
37142;BME280;23041;49.816;20.092;2022-11-03T13:31:36;97909.27;;;34.65;14.54
37142;BME280;23041;49.816;20.092;2022-11-03T13:34:03;97901.94;;;34.36;14.71
37142;BME280;23041;49.816;20.092;2022-11-03T13:36:29;97893.00;;;33.98;14.88
37142;BME280;23041;49.816;20.092;2022-11-03T13:38:55;97898.84;;;33.58;15.12
37142;BME280;23041;49.816;20.092;2022-11-03T13:41:21;97901.03;;;33.58;15.37
37142;BME280;23041;49.816;20.092;2022-11-03T13:43:47;97894.81;;;33.52;15.60
37142;BME280;23041;49.816;20.092;2022-11-03T13:46:14;97894.25;;;33.38;15.80
37142;BME280;23041;49.816;20.092;2022-11-03T13:48:40;97887.85;;;33.13;15.98
37142;BME280;23041;49.816;20.092;2022-11-03T13:51:06;97888.28;;;32.94;16.19
37142;BME280;23041;49.816;20.092;2022-11-03T13:53:35;97881.68;;;32.67;16.33
37142;BME280;23041;49.816;20.092;2022-11-03T13:56:01;97887.77;;;32.32;16.54
37142;BME280;23041;49.816;20.092;2022-11-03T13:58:27;97888.91;;;31.68;16.79
37142;BME280;23041;49.816;20.092;2022-11-03T14:00:54;97881.21;;;31.16;17.02
37142;BME280;23041;49.816;20.092;2022-11-03T14:03:20;97880.61;;;30.73;17.28
37142;BME280;23041;49.816;20.092;2022-11-03T14:05:46;97872.95;;;29.95;17.62
37142;BME280;23041;49.816;20.092;2022-11-03T14:08:13;97875.91;;;29.61;18.04
37142;BME280;23041;49.816;20.092;2022-11-03T14:10:39;97871.02;;;29.41;18.34